This is the latest recevied weather packets stored in our database for station/object VA7NEZ. If no packets are shown the sender has not sent any weather packets the latest 10 day(s).
| Time | Temp. | Humidity | Pressure | Rain* | Wind** | Luminosity | Snow |
|---|---|---|---|---|---|---|---|
| 1777875221 | 14.44° C | 56% | 1010.7 hPa | 0 mm | - | - | - |
| 1777874626 | 15° C | 57% | 1010.7 hPa | 0 mm | - | - | - |
| 1777873497 | 15.56° C | 54% | 1010.4 hPa | 0 mm | - | - | - |
| 1777873001 | 15.56° C | 54% | 1010.5 hPa | 0 mm | - | - | - |
| 1777871992 | 16.11° C | 54% | 1010.7 hPa | 0 mm | - | - | - |
| 1777870288 | 17.78° C | 48% | 1010.4 hPa | 0 mm | - | - | - |
| 1777869722 | 0° C | 100% | 1010.2 hPa | 0 mm | - | - | - |
| 1777869222 | 18.33° C | 51% | 1010.2 hPa | 0 mm | - | - | - |
| 1777868672 | 18.89° C | 45% | 1010.2 hPa | 0 mm | - | - | - |
| 1777868152 | 19.44° C | 43% | 1010.2 hPa | 0 mm | - | - | - |
| 1777867647 | 19.44° C | 43% | 1010 hPa | 0 mm | - | - | - |
| 1777867152 | 20.56° C | 40% | 1010 hPa | 0 mm | - | - | - |
| 1777865482 | 22.22° C | 36% | 1009.8 hPa | 0 mm | - | - | - |
| 1777863428 | 24.44° C | 32% | 1009.7 hPa | 0 mm | - | - | - |
| 1777847737 | 28.89° C | 22% | 1011.7 hPa | 0 mm | - | - | - |
| 1777847163 | 32.22° C | 20% | 1011.8 hPa | 0 mm | - | - | - |
| 1777846583 | 37.78° C | 15% | 1012.1 hPa | 0 mm | - | - | - |
| 1777845992 | 37.78° C | 15% | 1012 hPa | 0 mm | - | - | - |
| 1777844422 | 26.67° C | 24% | 1012.5 hPa | 0 mm | - | - | - |
| 1777843887 | 26.11° C | 24% | 1012.7 hPa | 0 mm | - | - | - |
| 1777839736 | 23.33° C | 26% | 1013.8 hPa | 0 mm | - | - | - |
| 1777839221 | 22.78° C | 29% | 1013.9 hPa | 0 mm | - | - | - |
| 1777835417 | 20° C | 35% | 1015.1 hPa | 0 mm | - | - | - |
| 1777832742 | 18.89° C | 39% | 1015.8 hPa | 0 mm | - | - | - |
| 1777831597 | 17.78° C | 40% | 1016.1 hPa | 0 mm | - | - | - |
* Rain latest hour (hover to see other rain measurements)
** Current wind speed in m/s (hover to see current wind gust speed)